Time;durP1;ratioP1;P1;durP2;ratioP2;P2;SDS_P1;SDS_P2;PMS_P1;PMS_P2;Temp;Humidity;BMP_temperature;BMP_pressure;BME280_temperature;BME280_humidity;BME280_pressure;Samples;Min_cycle;Max_cycle;Signal;HPM_P1;HPM_P2
2022/03/28 00:00:47;;;;;;;130.07;49.77;;;;;;;-1.05;51.29;100081.89;4237831;84;21011;-82
2022/03/28 00:07:00;;;;;;;151.67;56.10;;;;;;;-1.12;50.67;100084.86;4233160;84;21041;-82
2022/03/28 00:20:15;;;;;;;107.67;38.67;;;;;;;-1.35;51.13;100065.30;4233493;84;21103;-81
2022/03/28 00:27:16;;;;;;;113.90;39.03;;;;;;;-1.35;53.00;100053.21;4244594;84;21610;-82
2022/03/28 00:33:17;;;;;;;93.07;34.83;;;;;;;-1.43;52.54;100038.17;4189610;84;21079;-82
2022/03/28 00:39:20;;;;;;;88.00;33.43;;;;;;;-1.64;52.16;100044.92;4187516;84;20992;-82
2022/03/28 00:45:21;;;;;;;98.33;36.73;;;;;;;-1.58;54.84;100040.34;4273024;82;21086;-81
2022/03/28 00:51:23;;;;;;;91.27;36.60;;;;;;;-1.67;53.43;100036.06;4274049;82;21017;-81
2022/03/28 00:57:24;;;;;;;94.43;36.53;;;;;;;-1.82;53.51;100040.64;4274459;83;21097;-81
2022/03/28 01:03:26;;;;;;;102.00;36.23;;;;;;;-1.72;53.91;100037.94;4273340;82;21100;-81
2022/03/28 01:09:29;;;;;;;87.37;34.03;;;;;;;-1.60;53.92;100037.92;4273638;82;21517;-81
2022/03/28 01:15:32;;;;;;;79.37;33.23;;;;;;;-1.61;56.41;100036.32;4243695;82;21043;-81
2022/03/28 01:21:34;;;;;;;96.33;35.63;;;;;;;-1.70;59.55;100016.47;4273189;83;21920;-81
2022/03/28 01:27:41;;;;;;;91.40;34.03;;;;;;;-1.73;56.37;99994.20;4273758;83;21489;-81
2022/03/28 01:33:42;;;;;;;;;;;;;;;-1.62;55.70;99988.27;4243671;82;21047;-82
2022/03/28 01:39:43;;;;;;;87.27;34.30;;;;;;;-1.54;56.77;99969.45;4236379;83;20133;-82
2022/03/28 01:45:45;;;;;;;87.87;36.17;;;;;;;-1.40;56.21;99967.27;4234680;84;21649;-82
2022/03/28 01:51:50;;;;;;;83.27;33.63;;;;;;;-1.25;56.18;99955.12;4234746;83;21613;-83
2022/03/28 01:58:05;;;;;;;77.33;31.80;;;;;;;-1.34;55.33;99956.77;4239512;84;21047;-81
2022/03/28 02:04:06;;;;;;;83.53;32.63;;;;;;;-1.61;55.54;99964.36;4231399;84;21037;-81
2022/03/28 02:10:09;;;;;;;79.77;31.07;;;;;;;-1.78;56.17;99959.30;4234133;83;21022;-82
2022/03/28 02:16:22;;;;;;;85.13;33.43;;;;;;;-1.81;56.14;99957.69;4233245;84;21913;-82
2022/03/28 02:22:24;;;;;;;79.00;31.83;;;;;;;-1.80;56.45;99958.77;4235758;83;21111;-82
2022/03/28 02:28:26;;;;;;;77.17;29.77;;;;;;;-1.74;56.69;99952.86;4235235;82;21019;-83
2022/03/28 02:34:48;;;;;;;77.23;30.27;;;;;;;-1.75;56.92;99951.23;4237375;83;21027;-83
2022/03/28 02:48:01;;;;;;;78.53;32.30;;;;;;;-1.95;56.96;99940.01;4240390;84;20976;-83
2022/03/28 02:54:02;;;;;;;70.70;28.17;;;;;;;-2.09;57.42;99927.41;4234543;84;20990;-85
2022/03/28 03:13:31;;;;;;;77.10;29.13;;;;;;;-2.14;57.83;99909.44;4237821;84;21034;-84
2022/03/28 03:19:48;;;;;;;77.57;28.57;;;;;;;-2.09;58.81;99911.31;4230771;82;21044;-83
2022/03/28 03:26:25;;;;;;;72.50;28.60;;;;;;;-2.00;59.00;99908.34;4227362;82;2030860;-84
2022/03/28 03:32:58;;;;;;;66.93;27.53;;;;;;;-1.97;59.14;99901.09;4277969;80;21066;-84
2022/03/28 03:39:25;;;;;;;67.03;25.53;;;;;;;-1.88;59.03;99898.14;4281915;83;21495;-83
2022/03/28 03:46:11;;;;;;;55.40;24.73;;;;;;;-1.79;59.21;99896.50;4275056;83;20991;-84
2022/03/28 03:52:17;;;;;;;66.13;27.87;;;;;;;-1.77;59.53;99894.35;4376724;81;21034;-84
2022/03/28 03:58:38;;;;;;;64.60;25.85;;;;;;;-1.95;59.53;99897.60;4294697;77;28579;-83
2022/03/28 04:04:46;;;;;;;72.97;28.00;;;;;;;-2.14;59.63;99900.05;4193289;83;21072;-84
2022/03/28 04:10:49;;;;;;;69.83;27.60;;;;;;;-2.26;59.74;99890.67;4193041;84;21013;-84
2022/03/28 04:16:50;;;;;;;69.47;27.70;;;;;;;-2.26;59.94;99892.83;4195598;83;21740;-84
2022/03/28 04:36:46;;;;;;;62.00;26.20;;;;;;;-2.52;60.16;99878.36;4198994;83;21044;-83
2022/03/28 04:42:49;;;;;;;64.60;25.97;;;;;;;-2.37;61.06;99877.82;4201246;83;21072;-82
2022/03/28 04:48:57;;;;;;;67.47;27.13;;;;;;;-2.51;60.48;99880.77;4202197;83;21024;-83
2022/03/28 04:55:00;;;;;;;68.27;26.33;;;;;;;-2.54;60.69;99877.82;4197799;84;21055;-84
2022/03/28 05:01:01;;;;;;;64.03;26.37;;;;;;;-2.54;61.11;99883.18;4201515;83;21035;-84
2022/03/28 05:07:39;;;;;;;64.03;23.93;;;;;;;-2.58;61.73;99875.39;4202337;83;21706;-83
2022/03/28 05:13:41;;;;;;;63.23;27.07;;;;;;;-2.33;61.37;99867.33;4202166;83;21335;-85
2022/03/28 05:20:24;;;;;;;69.03;28.87;;;;;;;-2.27;62.31;99864.38;4201667;83;21044;-84
2022/03/28 05:26:27;;;;;;;76.33;28.20;;;;;;;-2.01;61.99;99866.49;4190723;83;21005;-83
2022/03/28 05:32:29;;;;;;;68.13;27.30;;;;;;;-1.73;62.71;99864.53;4197299;83;21077;-82
2022/03/28 05:38:46;;;;;;;85.37;29.43;;;;;;;-1.45;62.58;99865.76;4204687;83;21146;-85
2022/03/28 05:44:52;;;;;;;81.13;29.07;;;;;;;-1.06;62.39;99872.00;4196110;83;21009;-83
2022/03/28 05:51:05;;;;;;;92.50;29.73;;;;;;;-0.56;62.22;99862.24;4191889;84;21047;-84
2022/03/28 05:57:11;;;;;;;66.03;27.10;;;;;;;-0.19;61.74;99853.84;4108818;85;21092;-84
2022/03/28 06:03:30;;;;;;;69.07;25.53;;;;;;;0.15;61.31;99856.47;4126091;85;21148;-84
2022/03/28 06:09:33;;;;;;;99.70;27.13;;;;;;;0.43;61.45;99859.64;4133435;85;21083;-85
2022/03/28 06:15:43;;;;;;;55.85;23.52;;;;;;;1.01;61.49;99854.83;4122394;85;21084;-84
2022/03/28 06:21:45;;;;;;;68.37;23.18;;;;;;;1.74;61.17;99838.84;4121958;85;21031;-84
2022/03/28 06:28:03;;;;;;;57.80;23.62;;;;;;;2.45;60.53;99843.14;4124349;85;21095;-84
2022/03/28 06:34:08;;;;;;;64.22;24.12;;;;;;;3.07;59.97;99832.86;4120957;84;21107;-84
2022/03/28 06:40:11;;;;;;;61.83;26.50;;;;;;;3.64;59.30;99824.45;4120752;85;21095;-84
2022/03/28 06:46:15;;;;;;;62.33;26.23;;;;;;;4.12;58.64;99816.67;4125960;85;21032;-84
2022/03/28 06:52:17;;;;;;;58.87;25.43;;;;;;;4.54;58.03;99811.95;4065379;86;21118;-83
2022/03/28 07:05:29;;;;;;;63.00;26.55;;;;;;;5.78;57.23;99802.06;4125091;84;21099;-82
2022/03/28 07:11:41;;;;;;;69.47;27.90;;;;;;;6.42;56.64;99795.45;4117457;85;21145;-85
2022/03/28 07:17:55;;;;;;;64.72;30.52;;;;;;;6.89;56.30;99787.95;4120035;85;21535;-84
2022/03/28 07:23:58;;;;;;;62.73;26.95;;;;;;;7.46;55.84;99778.00;4197835;84;21020;-83
2022/03/28 07:29:59;;;;;;;57.25;27.90;;;;;;;7.94;55.27;99763.13;4199059;83;21043;-85
2022/03/28 07:36:11;;;;;;;62.53;29.77;;;;;;;8.55;54.69;99753.06;4197996;83;21123;-84
2022/03/28 07:42:13;;;;;;;57.25;28.23;;;;;;;9.10;54.06;99749.85;4204299;83;21031;-84
2022/03/28 07:48:55;;;;;;;56.53;26.75;;;;;;;9.68;54.10;99745.59;4199545;83;21171;-84
2022/03/28 07:55:36;;;;;;;56.05;28.12;;;;;;;10.25;53.19;99730.88;4196645;83;21148;-85
2022/03/28 08:01:41;;;;;;;35.23;19.02;;;;;;;11.05;52.80;99725.05;4196149;83;21054;-85
2022/03/28 08:07:42;;;;;;;32.00;16.65;;;;;;;11.88;51.99;99704.31;4197738;83;21651;-85
2022/03/28 08:13:44;;;;;;;27.35;14.93;;;;;;;12.60;50.36;99698.98;4197107;84;21044;-84
2022/03/28 08:19:49;;;;;;;27.82;13.78;;;;;;;13.27;49.78;99688.85;4196624;83;21013;-85
2022/03/28 08:25:53;;;;;;;33.33;15.10;;;;;;;13.76;48.16;99679.17;4195145;83;20976;-86
2022/03/28 08:31:57;;;;;;;30.27;15.40;;;;;;;14.09;47.50;99668.63;4197219;83;21098;-85
2022/03/28 08:38:03;;;;;;;31.33;14.83;;;;;;;14.37;45.89;99661.97;4202654;83;21022;-86
2022/03/28 08:44:06;;;;;;;26.87;13.75;;;;;;;14.58;45.37;99653.05;4202237;83;21064;-86
2022/03/28 08:50:14;;;;;;;25.50;13.55;;;;;;;15.14;43.96;99650.53;4199129;83;21075;-85
2022/03/28 09:02:46;;;;;;;29.82;13.65;;;;;;;15.83;42.88;99630.38;4674560;74;22429;-88
2022/03/28 09:08:47;;;;;;;20.55;12.68;;;;;;;16.48;42.07;99617.69;4503749;77;21595;-87
2022/03/28 09:15:01;;;;;;;26.17;13.72;;;;;;;17.05;40.97;99610.73;4509475;78;21044;-88
2022/03/28 09:21:10;;;;;;;20.32;12.78;;;;;;;17.98;38.36;99606.94;4462419;78;21506;-86
2022/03/28 09:27:16;;;;;;;22.95;12.85;;;;;;;18.75;38.65;99594.27;4500782;77;20971;-88
2022/03/28 09:33:18;;;;;;;24.87;14.30;;;;;;;19.53;36.95;99591.25;4508732;77;20963;-86
2022/03/28 09:39:29;;;;;;;22.70;12.95;;;;;;;19.99;35.59;99582.33;4314708;77;32848;-87
2022/03/28 09:45:38;;;;;;;22.10;13.62;;;;;;;20.56;35.43;99572.36;4354985;80;21007;-84
2022/03/28 09:58:59;;;;;;;19.27;11.97;;;;;;;21.47;31.37;99541.73;4348059;80;21086;-85
2022/03/28 10:05:01;;;;;;;19.23;9.43;;;;;;;22.86;30.34;99516.86;4354640;80;21502;-85
2022/03/28 10:11:03;;;;;;;16.73;8.75;;;;;;;22.86;30.34;99516.86;4341149;80;21562;-83
2022/03/28 10:17:06;;;;;;;18.37;8.58;;;;;;;23.33;27.98;99500.86;4338914;81;21593;-84
2022/03/28 10:23:10;;;;;;;10.88;7.40;;;;;;;23.66;27.78;99481.98;4335854;80;22044;-86
2022/03/28 10:29:22;;;;;;;29.30;8.23;;;;;;;23.66;27.78;99481.98;4340194;80;20987;-84
2022/03/28 10:35:24;;;;;;;11.95;7.60;;;;;;;24.30;26.07;99474.32;4335994;80;21054;-86
2022/03/28 10:41:41;;;;;;;16.15;7.47;;;;;;;24.35;26.37;99454.77;4345321;80;21090;-86
2022/03/28 10:47:59;;;;;;;11.68;6.75;;;;;;;25.07;25.72;99454.38;4347040;79;21039;-85
2022/03/28 10:54:06;;;;;;;11.55;6.25;;;;;;;25.27;25.59;99437.94;4340562;80;22416;-86
2022/03/28 11:00:12;;;;;;;11.08;7.47;;;;;;;25.57;25.09;99433.68;4280528;81;21050;-85
2022/03/28 11:06:19;;;;;;;11.38;6.50;;;;;;;25.39;24.80;99418.84;4323180;81;21034;-85
2022/03/28 11:12:34;;;;;;;10.15;6.85;;;;;;;25.72;24.44;99412.80;4284531;81;21011;-85
2022/03/28 11:18:36;;;;;;;8.25;5.80;;;;;;;25.48;23.06;99395.81;4277507;81;20994;-85
2022/03/28 11:24:58;;;;;;;7.97;5.85;;;;;;;25.31;22.97;99393.75;4263899;81;21018;-85
2022/03/28 11:31:09;;;;;;;8.88;5.40;;;;;;;25.11;23.02;99376.57;4277941;81;20998;-84
2022/03/28 11:37:14;;;;;;;14.50;5.87;;;;;;;25.15;22.25;99359.77;4279112;82;21014;-86
2022/03/28 11:43:16;;;;;;;11.57;5.40;;;;;;;24.80;22.76;99342.27;4280181;81;21586;-85
2022/03/28 11:49:18;;;;;;;14.50;6.85;;;;;;;24.34;22.66;99335.06;4279973;81;21019;-85
2022/03/28 11:55:24;;;;;;;13.20;5.97;;;;;;;23.91;22.01;99321.75;4304443;81;21404;-84
2022/03/28 12:01:26;;;;;;;10.43;5.15;;;;;;;23.27;21.90;99311.33;4286951;82;21549;-85
2022/03/28 12:07:35;;;;;;;18.95;5.25;;;;;;;22.14;23.38;99282.93;4276237;82;21451;-85
2022/03/28 12:13:38;;;;;;;15.13;4.92;;;;;;;22.16;23.30;99270.70;4299556;81;21038;-84
2022/03/28 12:19:39;;;;;;;7.00;4.97;;;;;;;22.16;23.30;99270.70;4279782;81;21006;-86
2022/03/28 12:25:48;;;;;;;12.23;5.42;;;;;;;22.16;23.68;99256.76;4255741;81;21578;-86
2022/03/28 12:31:50;;;;;;;16.17;4.87;;;;;;;22.05;23.89;99238.82;4279398;81;20963;-85
2022/03/28 12:38:00;;;;;;;7.87;5.03;;;;;;;21.72;24.19;99236.81;4281627;81;21058;-85
2022/03/28 12:44:04;;;;;;;9.08;4.72;;;;;;;21.76;24.21;99213.83;4280747;81;21026;-86
2022/03/28 12:50:08;;;;;;;7.72;4.42;;;;;;;21.69;24.50;99205.03;4296727;81;21046;-85
2022/03/28 12:56:16;;;;;;;8.10;4.35;;;;;;;21.69;24.77;99203.64;4279717;81;21070;-85
2022/03/28 13:02:19;;;;;;;15.98;5.75;;;;;;;21.73;24.90;99192.39;4259146;82;21712;-86
2022/03/28 13:08:29;;;;;;;12.82;4.75;;;;;;;21.26;25.11;99183.06;4261696;82;21025;-86
2022/03/28 13:14:32;;;;;;;10.68;5.00;;;;;;;21.20;25.43;99173.70;4262105;82;21090;-85
2022/03/28 13:20:38;;;;;;;17.95;5.35;;;;;;;21.07;25.31;99163.13;4263839;82;20967;-84
2022/03/28 13:26:47;;;;;;;9.80;4.70;;;;;;;20.83;25.55;99154.86;4265746;82;21052;-85
2022/03/28 13:32:48;;;;;;;9.33;4.70;;;;;;;20.80;25.47;99140.41;4262405;82;21598;-85
2022/03/28 13:38:50;;;;;;;9.53;4.47;;;;;;;20.65;25.37;99125.34;4264292;82;21074;-85
2022/03/28 13:44:51;;;;;;;9.15;4.75;;;;;;;20.41;25.18;99119.22;4264777;82;21002;-85
2022/03/28 13:50:53;;;;;;;9.90;4.30;;;;;;;20.23;25.44;99109.19;4270827;82;21054;-85
2022/03/28 13:56:56;;;;;;;17.98;3.98;;;;;;;20.33;25.60;99103.94;4258737;82;21160;-86
2022/03/28 14:02:58;;;;;;;6.87;3.50;;;;;;;20.39;25.64;99095.23;4272353;81;21015;-86
2022/03/28 14:08:59;;;;;;;9.68;4.15;;;;;;;20.42;25.33;99080.48;4293491;82;21010;-84
2022/03/28 14:15:02;;;;;;;6.40;3.90;;;;;;;20.47;25.69;99070.20;4296967;82;21932;-87
2022/03/28 14:21:03;;;;;;;7.70;3.95;;;;;;;20.71;25.41;99056.81;4277847;81;21038;-85
2022/03/28 14:27:07;;;;;;;11.53;4.53;;;;;;;20.67;25.46;99050.59;4277993;81;21973;-86
2022/03/28 14:33:11;;;;;;;13.40;4.62;;;;;;;20.41;25.48;99030.85;4264257;82;21666;-86
2022/03/28 14:39:13;;;;;;;7.65;3.65;;;;;;;20.37;26.02;99034.35;4294265;81;21061;-85
2022/03/28 14:45:17;;;;;;;12.03;4.00;;;;;;;20.26;26.19;99029.69;4265643;81;21101;-86
2022/03/28 14:51:19;;;;;;;12.20;4.17;;;;;;;20.09;26.01;99022.74;4286357;81;21021;-85
2022/03/28 14:57:22;;;;;;;9.78;4.15;;;;;;;20.03;26.06;99009.81;4294015;81;21014;-86
2022/03/28 15:03:24;;;;;;;10.55;4.05;;;;;;;19.88;26.02;99005.27;4257541;82;20995;-85
2022/03/28 15:09:28;;;;;;;8.98;4.20;;;;;;;19.74;26.34;98986.19;4290639;82;21541;-86
2022/03/28 15:15:31;;;;;;;8.73;4.72;;;;;;;19.65;26.40;98985.24;4285810;81;21054;-86
2022/03/28 15:21:50;;;;;;;13.15;4.80;;;;;;;19.42;26.94;98980.64;4285015;81;21102;-85
2022/03/28 15:27:52;;;;;;;17.48;4.25;;;;;;;19.22;27.35;98981.90;4298980;80;21041;-86
2022/03/28 15:33:59;;;;;;;10.50;4.70;;;;;;;19.01;27.32;98966.56;4289959;81;21093;-86
2022/03/28 15:40:02;;;;;;;10.70;4.55;;;;;;;18.80;27.57;98959.30;4287833;81;20999;-85
2022/03/28 15:46:03;;;;;;;6.80;4.15;;;;;;;18.62;27.93;98955.56;4292073;82;21513;-85
2022/03/28 15:52:07;;;;;;;12.47;5.50;;;;;;;18.37;28.41;98949.73;4285103;82;21050;-85
2022/03/28 15:58:08;;;;;;;19.92;5.00;;;;;;;18.19;28.67;98950.09;4307781;81;21006;-85
2022/03/28 16:04:12;;;;;;;12.10;4.20;;;;;;;17.96;28.77;98936.91;4278858;81;21022;-86
2022/03/28 16:10:13;;;;;;;14.98;4.17;;;;;;;17.75;28.92;98932.55;4266235;82;21347;-86
2022/03/28 16:16:19;;;;;;;13.00;4.78;;;;;;;17.51;29.23;98929.62;4262303;82;21002;-86
2022/03/28 16:22:20;;;;;;;10.03;4.50;;;;;;;17.24;29.63;98928.27;4264577;82;20991;-86
2022/03/28 16:28:22;;;;;;;12.13;5.22;;;;;;;17.03;29.76;98929.22;4268550;82;21031;-85
2022/03/28 16:34:23;;;;;;;11.75;5.20;;;;;;;16.83;30.16;98923.61;4269978;82;21034;-87
2022/03/28 16:40:25;;;;;;;16.48;5.20;;;;;;;16.64;30.64;98915.20;4281906;82;21066;-86
2022/03/28 16:46:26;;;;;;;14.30;4.85;;;;;;;16.45;30.85;98910.34;4273915;82;21498;-86
2022/03/28 16:52:27;;;;;;;14.47;4.70;;;;;;;16.21;31.19;98912.20;4268899;82;21004;-86
2022/03/28 16:58:29;;;;;;;12.30;4.60;;;;;;;15.96;31.57;98902.67;4136369;79;10000061;-85
2022/03/28 17:04:32;;;;;;;8.90;5.35;;;;;;;15.73;32.03;98911.59;4277009;82;21078;-86
2022/03/28 17:10:33;;;;;;;8.10;5.08;;;;;;;15.53;32.41;98902.35;4261434;82;20983;-85
2022/03/28 17:16:35;;;;;;;12.45;6.15;;;;;;;15.35;32.86;98895.59;4260349;82;21800;-86
2022/03/28 17:22:36;;;;;;;13.25;7.33;;;;;;;15.12;33.34;98889.91;4263070;82;20987;-86
2022/03/28 17:28:38;;;;;;;15.75;6.95;;;;;;;14.89;33.61;98886.92;4279895;82;20967;-86
2022/03/28 17:34:40;;;;;;;22.55;11.43;;;;;;;14.69;33.99;98885.14;4259569;82;21038;-86
2022/03/28 17:40:44;;;;;;;20.17;12.15;;;;;;;14.36;34.81;98881.00;4260587;82;20983;-85
2022/03/28 17:46:46;;;;;;;30.82;14.05;;;;;;;14.11;36.15;98880.31;4262438;82;20983;-85
2022/03/28 17:52:50;;;;;;;33.92;17.37;;;;;;;13.89;36.49;98876.88;4261052;82;20971;-86
2022/03/28 17:58:53;;;;;;;30.35;15.85;;;;;;;13.73;36.55;98884.03;4140650;82;10000236;-84
2022/03/28 18:04:55;;;;;;;28.45;15.23;;;;;;;13.55;36.72;98879.16;4285596;82;21173;-86
2022/03/28 18:10:56;;;;;;;26.80;13.20;;;;;;;13.37;37.21;98878.42;4276876;82;20987;-85
2022/03/28 18:16:58;;;;;;;56.50;26.48;;;;;;;13.23;37.72;98868.83;4276448;82;21955;-85
2022/03/28 18:22:59;;;;;;;40.12;20.60;;;;;;;13.06;37.88;98858.64;4273155;82;21962;-85
2022/03/28 18:29:00;;;;;;;40.78;20.80;;;;;;;12.90;38.18;98858.23;4273759;82;21054;-85
2022/03/28 18:35:03;;;;;;;70.10;35.78;;;;;;;12.74;38.14;98855.88;4281128;82;21455;-85
2022/03/28 18:41:05;;;;;;;68.00;36.17;;;;;;;12.57;38.24;98857.41;4285858;82;20995;-85
2022/03/28 18:47:07;;;;;;;72.35;38.80;;;;;;;12.39;38.52;98859.95;4288974;82;20987;-85
2022/03/28 18:53:08;;;;;;;68.50;38.65;;;;;;;12.18;38.69;98858.55;4291769;82;20988;-85
2022/03/28 18:59:10;;;;;;;66.97;37.63;;;;;;;11.94;38.97;98852.39;4278703;82;21495;-85
2022/03/28 19:05:13;;;;;;;70.60;34.70;;;;;;;11.63;39.36;98848.94;4294947;82;21018;-85
2022/03/28 19:11:16;;;;;;;69.03;35.50;;;;;;;11.41;39.80;98848.03;4293648;81;21176;-85
2022/03/28 19:17:18;;;;;;;56.23;30.90;;;;;;;11.04;40.06;98843.28;4294641;81;21138;-84
2022/03/28 19:23:21;;;;;;;55.08;31.82;;;;;;;10.74;40.58;98841.31;4299151;81;20998;-85
2022/03/28 19:29:22;;;;;;;58.13;30.80;;;;;;;10.48;41.05;98841.47;4308913;81;21055;-85
2022/03/28 19:35:23;;;;;;;57.78;31.35;;;;;;;10.24;41.60;98833.84;4305954;81;21040;-85
2022/03/28 19:41:52;;;;;;;57.80;31.50;;;;;;;10.05;42.16;98840.27;4314642;81;21549;-85
2022/03/28 19:47:58;;;;;;;58.20;29.35;;;;;;;9.86;42.52;98826.77;4297141;82;21445;-85
2022/03/28 19:53:56;;;;;;;56.33;27.82;;;;;;;9.58;42.95;98816.08;4276261;81;21636;-85
2022/03/28 20:06:50;;;;;;;43.50;22.13;;;;;;;9.11;43.75;98807.08;4221352;82;20978;-84
2022/03/28 20:13:15;;;;;;;50.48;25.10;;;;;;;8.87;44.26;98805.58;4220317;83;20978;-84
2022/03/28 20:19:31;;;;;;;45.08;25.00;;;;;;;8.70;44.73;98796.55;4193722;83;21051;-85
2022/03/28 20:25:42;;;;;;;49.93;26.15;;;;;;;8.54;45.05;98795.10;4200128;83;21062;-84
2022/03/28 20:31:48;;;;;;;47.48;22.40;;;;;;;8.39;45.43;98788.66;4223710;83;21100;-84
2022/03/28 20:38:08;;;;;;;44.63;23.35;;;;;;;8.26;45.66;98783.16;4156174;85;21679;-85
2022/03/28 20:44:23;;;;;;;49.33;24.00;;;;;;;8.00;45.76;98783.85;4148285;83;21067;-85
2022/03/28 20:50:31;;;;;;;49.42;23.55;;;;;;;7.71;46.04;98774.95;4190104;84;21099;-84
2022/03/28 21:03:25;;;;;;;50.25;22.60;;;;;;;7.53;46.52;98751.26;4172916;84;21041;-84
2022/03/28 21:09:26;;;;;;;39.95;20.37;;;;;;;7.38;46.77;98754.27;4182490;84;22060;-84
2022/03/28 21:15:38;;;;;;;36.77;17.07;;;;;;;7.28;47.08;98755.44;4199356;84;21029;-85
2022/03/28 21:22:07;;;;;;;;;;;;;;;;;;;;;
2022/03/28 21:28:38;;;;;;;36.75;16.25;;;;;;;6.98;47.57;98740.80;4157546;84;21631;-85
2022/03/28 21:34:55;;;;;;;33.58;15.03;;;;;;;6.93;47.51;98737.00;4301887;82;21024;-84
2022/03/28 21:48:15;;;;;;;36.33;16.30;;;;;;;6.86;47.81;98718.58;4279848;82;21083;-84
2022/03/28 21:54:39;;;;;;;31.97;14.25;;;;;;;6.80;47.95;98712.41;4285656;82;21043;-85
2022/03/28 22:01:37;;;;;;;29.87;13.35;;;;;;;6.74;48.07;98709.20;4292094;82;21043;-84
2022/03/28 22:07:39;;;;;;;32.70;13.90;;;;;;;6.68;48.30;98703.83;4267975;81;21075;-83
2022/03/28 22:14:11;;;;;;;30.37;13.70;;;;;;;6.61;48.71;98695.50;4124537;84;21980;-84
2022/03/28 22:20:15;;;;;;;41.58;17.37;;;;;;;6.54;48.92;98694.56;4121759;85;21036;-84
2022/03/28 22:26:40;;;;;;;41.83;18.20;;;;;;;6.39;49.07;98677.14;4119794;85;20983;-83
2022/03/28 22:32:42;;;;;;;59.63;22.45;;;;;;;6.30;49.78;98666.48;4129400;85;21008;-87
2022/03/28 22:38:46;;;;;;;51.90;22.00;;;;;;;6.14;49.90;98667.07;4124252;85;21051;-84
2022/03/28 22:45:00;;;;;;;43.98;18.00;;;;;;;6.04;49.65;98662.76;4199692;84;21022;-84
2022/03/28 22:51:15;;;;;;;44.42;19.23;;;;;;;5.94;50.34;98646.42;4207037;84;21523;-84
2022/03/28 23:03:38;;;;;;;52.27;19.52;;;;;;;5.84;50.82;98629.29;4214952;84;21018;-84
2022/03/28 23:16:33;;;;;;;49.20;18.30;;;;;;;5.51;50.77;98622.05;4226470;81;21118;-84
2022/03/28 23:22:55;;;;;;;57.93;20.17;;;;;;;5.46;51.33;98620.17;4277737;82;21068;-84
2022/03/28 23:29:35;;;;;;;62.85;20.20;;;;;;;5.36;51.54;98611.19;4256379;82;21080;-83
2022/03/28 23:35:42;;;;;;;72.25;22.42;;;;;;;5.21;51.67;98600.55;4265626;82;21025;-84
2022/03/28 23:41:53;;;;;;;51.83;21.40;;;;;;;5.12;51.98;98586.94;4275278;82;21078;-83
2022/03/28 23:48:22;;;;;;;66.07;25.88;;;;;;;5.06;52.35;98580.95;4270136;82;21026;-83
2022/03/28 23:54:49;;;;;;;59.63;24.47;;;;;;;4.93;52.34;98574.05;4078938;86;21001;-84
